Time;durP1;ratioP1;P1;durP2;ratioP2;P2;SDS_P1;SDS_P2;PMS_P1;PMS_P2;Temp;Humidity;BMP_temperature;BMP_pressure;BME280_temperature;BME280_humidity;BME280_pressure;Samples;Min_cycle;Max_cycle;Signal;HPM_P1;HPM_P2
2022/01/19 00:00:17;;;;;;;34.15;11.60;;;8.00;98.70;;;;;;5013636;28;20030;-71
2022/01/19 00:02:43;;;;;;;24.50;9.88;;;7.90;98.70;;;;;;5013220;28;20103;-71
2022/01/19 00:05:09;;;;;;;30.52;11.80;;;7.90;98.70;;;;;;5013111;28;20403;-71
2022/01/19 00:07:36;;;;;;;31.90;11.82;;;8.00;98.70;;;;;;5012762;28;20038;-72
2022/01/19 00:10:06;;;;;;;31.58;11.70;;;8.00;98.70;;;;;;5012746;28;20089;-71
2022/01/19 00:12:32;;;;;;;34.33;12.00;;;7.90;98.70;;;;;;5013031;28;20029;-72
2022/01/19 00:14:58;;;;;;;34.08;11.65;;;7.90;98.80;;;;;;5012369;28;20108;-71
2022/01/19 00:17:24;;;;;;;35.25;12.32;;;7.90;98.70;;;;;;5012676;28;20302;-70
2022/01/19 00:19:50;;;;;;;35.33;12.48;;;7.90;98.70;;;;;;5012863;28;20022;-71
2022/01/19 00:22:15;;;;;;;37.08;13.10;;;7.90;98.70;;;;;;5012845;28;20419;-72
2022/01/19 00:24:42;;;;;;;37.25;11.75;;;7.90;98.70;;;;;;5012246;28;20405;-71
2022/01/19 00:27:11;;;;;;;36.05;12.80;;;7.90;98.70;;;;;;4995627;28;20029;-71
2022/01/19 00:29:36;;;;;;;33.80;12.80;;;7.80;98.70;;;;;;5012707;28;20460;-70
2022/01/19 00:32:02;;;;;;;38.00;12.57;;;7.80;98.80;;;;;;5011968;28;20041;-72
2022/01/19 00:34:28;;;;;;;32.78;12.75;;;7.90;98.80;;;;;;4996992;28;20114;-71
2022/01/19 00:36:54;;;;;;;29.50;11.18;;;7.80;98.80;;;;;;4975830;28;20372;-68
2022/01/19 00:39:20;;;;;;;35.88;12.15;;;7.80;98.80;;;;;;4993246;28;20018;-69
2022/01/19 00:41:45;;;;;;;31.00;12.23;;;7.80;98.80;;;;;;4994133;28;20184;-69
2022/01/19 00:44:11;;;;;;;33.45;12.38;;;7.80;98.80;;;;;;5012080;28;20112;-71
2022/01/19 00:46:36;;;;;;;43.30;12.18;;;7.80;98.80;;;;;;5012401;28;20030;-71
2022/01/19 00:49:02;;;;;;;36.58;13.63;;;7.80;98.70;;;;;;5012429;28;20029;-70
2022/01/19 00:51:28;;;;;;;34.45;11.93;;;7.80;98.80;;;;;;5012778;28;20105;-70
2022/01/19 00:53:53;;;;;;;32.67;12.40;;;7.70;98.70;;;;;;5010379;28;20022;-69
2022/01/19 00:56:19;;;;;;;36.42;11.95;;;7.70;98.80;;;;;;4992558;28;20112;-70
2022/01/19 00:58:44;;;;;;;29.38;12.55;;;7.60;98.80;;;;;;4993199;28;20022;-70
2022/01/19 01:01:10;;;;;;;30.17;12.13;;;7.60;98.80;;;;;;5012290;28;20038;-71
2022/01/19 01:03:36;;;;;;;23.00;10.82;;;7.50;98.80;;;;;;4994514;28;20083;-70
2022/01/19 01:06:01;;;;;;;34.72;11.73;;;7.40;98.80;;;;;;5012505;28;20091;-69
2022/01/19 01:08:27;;;;;;;30.02;10.88;;;7.40;98.90;;;;;;5012009;28;20034;-69
2022/01/19 01:10:53;;;;;;;31.85;11.25;;;7.20;98.90;;;;;;5011936;28;20026;-69
2022/01/19 01:16:17;;;;;;;26.58;10.77;;;7.00;99.00;;;;;;5011789;28;20065;-70
2022/01/19 01:18:42;;;;;;;36.25;10.93;;;7.00;99.10;;;;;;5011935;28;20037;-70
2022/01/19 01:21:08;;;;;;;38.47;11.32;;;6.90;99.20;;;;;;5012113;28;20574;-71
2022/01/19 01:23:35;;;;;;;34.33;10.73;;;6.80;99.20;;;;;;5011617;28;20084;-69
2022/01/19 01:26:01;;;;;;;27.15;10.85;;;6.80;99.20;;;;;;5011595;28;20050;-69
2022/01/19 01:28:27;;;;;;;39.03;11.95;;;6.70;99.10;;;;;;5011619;28;20041;-71
2022/01/19 01:30:53;;;;;;;29.13;10.15;;;6.60;99.30;;;;;;5011277;28;20026;-69
2022/01/19 01:33:19;;;;;;;31.55;11.77;;;6.50;99.30;;;;;;5011598;28;20026;-69
2022/01/19 01:35:45;;;;;;;33.50;12.77;;;6.50;99.40;;;;;;4994123;28;20030;-69
2022/01/19 01:38:11;;;;;;;29.90;12.95;;;6.40;99.40;;;;;;5011384;28;20041;-69
2022/01/19 01:40:37;;;;;;;37.25;12.88;;;6.40;99.50;;;;;;4993951;28;20053;-69
2022/01/19 01:43:07;;;;;;;38.00;12.95;;;6.40;99.50;;;;;;5011438;28;20033;-69
2022/01/19 01:45:37;;;;;;;42.22;13.23;;;6.30;99.50;;;;;;4993286;28;20068;-69
2022/01/19 01:48:08;;;;;;;29.73;12.68;;;6.20;99.30;;;;;;5012189;28;20084;-69
2022/01/19 01:53:27;;;;;;;38.65;13.25;;;6.10;99.50;;;;;;5011088;28;20044;-70
2022/01/19 01:56:00;;;;;;;42.08;13.73;;;6.00;99.50;;;;;;5011012;28;20120;-69
2022/01/19 01:58:28;;;;;;;38.88;13.38;;;6.00;99.60;;;;;;5011003;28;20061;-68
2022/01/19 02:00:55;;;;;;;37.60;12.75;;;5.90;99.70;;;;;;4993720;28;20065;-68
2022/01/19 02:03:21;;;;;;;43.67;12.45;;;5.90;99.70;;;;;;5011475;28;20420;-69
2022/01/19 02:06:20;;;;;;;34.63;12.20;;;5.80;99.60;;;;;;5011022;28;20036;-68
2022/01/19 02:08:43;;;;;;;37.47;12.30;;;5.80;99.70;;;;;;5010193;28;20038;-69
2022/01/19 02:22:01;;;;;;;33.83;13.02;;;5.70;99.60;;;;;;4977848;28;20065;-69
2022/01/19 02:24:31;;;;;;;30.48;12.20;;;5.70;99.80;;;;;;5010832;28;20042;-69
2022/01/19 02:27:08;;;;;;;41.35;13.00;;;5.70;99.90;;;;;;5010767;28;20464;-69
2022/01/19 02:30:25;;;;;;;37.63;13.25;;;5.70;99.90;;;;;;5010547;28;20068;-69
2022/01/19 02:40:50;;;;;;;35.40;12.05;;;5.40;99.90;;;;;;4991499;28;20062;-69
2022/01/19 02:43:27;;;;;;;35.63;12.38;;;5.50;99.90;;;;;;4991001;28;20092;-69
2022/01/19 02:51:22;;;;;;;30.17;12.35;;;5.30;99.80;;;;;;4991755;28;20037;-70
2022/01/19 02:53:48;;;;;;;34.63;11.30;;;5.30;99.80;;;;;;4990814;28;20027;-69
2022/01/19 02:56:22;;;;;;;32.28;12.13;;;5.20;99.90;;;;;;4992733;28;20045;-70
2022/01/19 02:58:55;;;;;;;29.83;11.90;;;5.20;99.80;;;;;;4995168;28;20034;-69
2022/01/19 03:09:27;;;;;;;39.95;13.45;;;5.00;99.90;;;;;;4995369;28;20039;-68
2022/01/19 03:11:54;;;;;;;32.47;12.65;;;5.10;99.80;;;;;;4994525;28;20437;-69
2022/01/19 03:14:20;;;;;;;38.55;12.52;;;5.00;99.70;;;;;;4994171;28;20030;-69
2022/01/19 03:16:46;;;;;;;37.70;12.55;;;4.90;99.70;;;;;;4995146;28;20034;-70
2022/01/19 03:19:12;;;;;;;34.22;11.82;;;5.00;99.80;;;;;;4994385;28;20026;-70
2022/01/19 03:21:39;;;;;;;39.50;13.05;;;4.90;99.90;;;;;;4994366;28;20026;-70
2022/01/19 03:24:05;;;;;;;43.28;13.05;;;5.10;99.90;;;;;;4994628;28;20445;-69
2022/01/19 03:26:32;;;;;;;32.15;11.00;;;5.20;99.80;;;;;;5013587;28;20053;-70
2022/01/19 03:28:57;;;;;;;34.80;12.73;;;5.00;99.70;;;;;;5013803;28;20128;-69
2022/01/19 03:31:23;;;;;;;30.58;12.23;;;5.00;99.60;;;;;;5013778;28;20177;-70
2022/01/19 03:33:49;;;;;;;40.78;13.40;;;5.00;99.60;;;;;;5003066;28;20325;-69
2022/01/19 03:36:15;;;;;;;31.48;12.60;;;4.80;99.60;;;;;;4994459;28;20474;-70
2022/01/19 03:38:40;;;;;;;38.75;12.18;;;4.80;99.70;;;;;;4993993;28;20041;-69
2022/01/19 03:41:06;;;;;;;30.63;12.43;;;4.70;99.60;;;;;;4993914;28;20587;-68
2022/01/19 03:43:31;;;;;;;30.85;12.27;;;4.70;99.80;;;;;;4993939;28;20334;-68
2022/01/19 03:45:59;;;;;;;29.20;11.75;;;4.70;99.60;;;;;;4993891;28;20061;-69
2022/01/19 03:48:43;;;;;;;;;;;4.60;99.60;;;;;;4994716;28;20026;-71
2022/01/19 03:51:09;;;;;;;33.67;12.00;;;4.70;99.50;;;;;;5013254;28;19916;-70
2022/01/19 03:53:35;;;;;;;35.03;11.35;;;4.60;99.60;;;;;;5013054;28;20471;-69
2022/01/19 03:56:01;;;;;;;40.53;13.23;;;4.50;99.60;;;;;;5013286;28;20046;-69
2022/01/19 03:58:27;;;;;;;33.22;13.07;;;4.50;99.70;;;;;;4995712;28;20041;-68
2022/01/19 04:00:54;;;;;;;32.80;11.88;;;4.40;99.70;;;;;;5013439;28;20459;-69
2022/01/19 04:03:25;;;;;;;39.25;12.57;;;4.40;99.80;;;;;;5013597;28;20029;-68
2022/01/19 04:06:03;;;;;;;36.63;12.30;;;4.50;99.70;;;;;;5012990;28;20044;-70
2022/01/19 04:08:29;;;;;;;30.25;11.55;;;4.40;99.60;;;;;;5011549;28;20026;-69
2022/01/19 04:10:54;;;;;;;36.97;13.88;;;4.30;99.90;;;;;;5013143;28;20119;-68
2022/01/19 04:13:30;;;;;;;28.10;11.70;;;4.30;99.60;;;;;;5012736;28;20052;-68
2022/01/19 04:15:56;;;;;;;34.33;12.60;;;4.40;99.60;;;;;;5012894;28;20415;-69
2022/01/19 04:18:21;;;;;;;36.75;12.50;;;4.30;99.60;;;;;;5013446;28;20025;-68
2022/01/19 04:20:51;;;;;;;35.90;11.95;;;4.30;99.60;;;;;;4995376;28;20042;-69
2022/01/19 04:23:19;;;;;;;35.70;12.15;;;4.30;99.60;;;;;;5012584;28;20030;-68
2022/01/19 04:25:45;;;;;;;35.05;12.23;;;4.30;99.60;;;;;;5012596;28;20077;-69
2022/01/19 04:28:12;;;;;;;35.72;12.80;;;4.30;99.70;;;;;;5012601;28;20038;-68
2022/01/19 04:30:39;;;;;;;30.20;11.63;;;4.40;99.60;;;;;;5012156;28;20408;-69
2022/01/19 04:33:12;;;;;;;31.03;11.83;;;4.40;99.60;;;;;;5013478;28;20044;-68
2022/01/19 04:35:51;;;;;;;25.23;10.75;;;4.30;99.40;;;;;;5012576;28;20775;-68
2022/01/19 04:54:27;;;;;;;34.67;10.77;;;4.10;99.80;;;;;;4932748;29;20390;-69
2022/01/19 05:03:10;;;;;;;36.20;10.98;;;4.30;99.90;;;;;;5011835;28;20150;-68
2022/01/19 05:05:50;;;;;;;33.03;10.35;;;4.30;99.90;;;;;;5011794;28;20034;-69
2022/01/19 05:13:38;;;;;;;23.40;9.27;;;4.40;99.90;;;;;;5011792;28;20049;-69
2022/01/19 05:16:04;;;;;;;32.33;9.40;;;4.50;99.90;;;;;;4994221;28;20422;-70
2022/01/19 05:18:30;;;;;;;24.73;8.95;;;4.40;99.90;;;;;;5011771;28;20029;-69
2022/01/19 05:20:57;;;;;;;23.25;8.88;;;4.40;99.90;;;;;;5011804;28;20041;-68
2022/01/19 05:23:22;;;;;;;30.55;8.73;;;4.50;99.90;;;;;;4994393;28;20599;-70
2022/01/19 05:25:48;;;;;;;23.88;9.10;;;4.60;99.90;;;;;;5011607;28;20077;-70
2022/01/19 05:28:14;;;;;;;31.67;8.98;;;4.60;99.90;;;;;;4994369;28;20030;-68
2022/01/19 05:30:40;;;;;;;29.85;9.18;;;4.60;99.90;;;;;;5011215;28;20034;-68
2022/01/19 05:33:06;;;;;;;27.52;9.07;;;4.70;99.90;;;;;;4996776;28;20038;-68
2022/01/19 05:35:31;;;;;;;25.35;8.95;;;4.70;99.90;;;;;;4991754;28;20027;-69
2022/01/19 05:37:57;;;;;;;28.23;8.20;;;4.80;99.90;;;;;;5009013;28;20034;-69
2022/01/19 05:40:23;;;;;;;23.88;8.77;;;4.80;99.90;;;;;;4994193;28;20447;-69
2022/01/19 05:42:50;;;;;;;24.58;8.48;;;4.80;99.90;;;;;;5011268;28;20032;-69
2022/01/19 05:45:17;;;;;;;23.33;8.00;;;4.70;99.90;;;;;;5011754;28;20033;-70
2022/01/19 05:47:45;;;;;;;20.40;8.63;;;4.70;99.90;;;;;;5011088;28;20040;-68
2022/01/19 05:50:11;;;;;;;27.67;8.88;;;4.70;99.90;;;;;;4991521;28;20054;-69
2022/01/19 05:52:36;;;;;;;22.65;8.40;;;4.80;99.90;;;;;;4991494;28;20456;-69
2022/01/19 05:55:02;;;;;;;23.85;8.48;;;4.70;99.90;;;;;;4991261;28;20034;-70
2022/01/19 05:57:28;;;;;;;27.73;9.20;;;4.80;99.90;;;;;;4992077;28;20034;-68
2022/01/19 05:59:53;;;;;;;25.05;8.50;;;4.70;99.90;;;;;;4991497;28;20042;-69
2022/01/19 06:02:19;;;;;;;21.35;8.13;;;4.70;99.90;;;;;;4991623;28;20034;-69
2022/01/19 06:04:44;;;;;;;24.20;8.68;;;4.60;99.90;;;;;;4992308;28;20031;-69
2022/01/19 06:07:12;;;;;;;23.02;8.93;;;4.60;99.90;;;;;;5011147;28;20026;-69
2022/01/19 06:09:50;;;;;;;28.08;9.38;;;4.60;99.90;;;;;;5011222;28;20032;-70
2022/01/19 06:12:16;;;;;;;23.38;9.10;;;4.60;99.90;;;;;;4994043;28;20646;-69
2022/01/19 06:14:44;;;;;;;27.20;9.25;;;4.50;99.90;;;;;;5010709;28;20038;-69
2022/01/19 06:17:12;;;;;;;24.98;9.35;;;4.50;99.90;;;;;;5010822;28;20054;-68
2022/01/19 06:19:38;;;;;;;19.80;8.27;;;4.50;99.90;;;;;;5010983;28;20053;-68
2022/01/19 06:22:04;;;;;;;21.15;8.00;;;4.50;99.90;;;;;;5010887;28;20034;-68
2022/01/19 06:24:30;;;;;;;19.77;8.23;;;4.50;99.90;;;;;;5010984;28;20053;-68
2022/01/19 06:26:56;;;;;;;27.88;8.60;;;4.50;99.90;;;;;;5010807;28;20341;-67
2022/01/19 06:29:22;;;;;;;22.98;9.15;;;4.50;99.90;;;;;;5010158;28;20180;-68
2022/01/19 06:31:48;;;;;;;20.77;9.35;;;4.50;99.90;;;;;;5001383;28;20026;-69
2022/01/19 06:34:14;;;;;;;25.67;9.15;;;4.50;99.90;;;;;;4991252;28;20023;-69
2022/01/19 06:36:40;;;;;;;18.52;9.38;;;4.40;99.90;;;;;;4989973;28;20341;-68
2022/01/19 06:39:05;;;;;;;21.23;9.10;;;4.50;99.90;;;;;;5008180;28;20041;-68
2022/01/19 06:41:31;;;;;;;25.58;9.45;;;4.40;99.90;;;;;;4992725;28;20062;-72
2022/01/19 06:43:57;;;;;;;17.85;9.00;;;4.40;99.90;;;;;;4993556;28;20034;-70
2022/01/19 06:46:22;;;;;;;19.48;9.35;;;4.50;99.90;;;;;;5010759;28;20029;-70
2022/01/19 06:48:48;;;;;;;22.48;10.52;;;4.50;99.90;;;;;;5010975;28;20022;-70
2022/01/19 06:51:14;;;;;;;20.33;8.95;;;4.50;99.90;;;;;;4993925;28;20026;-69
2022/01/19 06:53:40;;;;;;;22.38;9.98;;;4.50;99.90;;;;;;5010816;28;20479;-70
2022/01/19 06:56:05;;;;;;;20.73;9.57;;;4.60;99.90;;;;;;5010400;28;20160;-71
2022/01/19 06:58:31;;;;;;;20.00;9.88;;;4.60;99.90;;;;;;4993035;28;20485;-70
2022/01/19 07:00:57;;;;;;;20.38;10.27;;;4.60;99.90;;;;;;5009079;28;20036;-70
2022/01/19 07:03:22;;;;;;;19.05;10.15;;;4.60;99.90;;;;;;4991607;28;20109;-71
2022/01/19 07:05:48;;;;;;;17.60;10.32;;;4.60;99.90;;;;;;4973969;28;20125;-71
2022/01/19 07:08:14;;;;;;;15.68;10.13;;;4.60;99.90;;;;;;4991150;28;20030;-70
2022/01/19 07:10:40;;;;;;;20.73;9.05;;;4.60;99.90;;;;;;4990880;28;20456;-70
2022/01/19 07:13:06;;;;;;;16.15;9.23;;;4.60;99.90;;;;;;4994437;28;20096;-71
2022/01/19 07:15:32;;;;;;;19.85;10.45;;;4.70;99.90;;;;;;5010249;28;20460;-70
2022/01/19 07:17:58;;;;;;;16.90;10.40;;;4.80;99.90;;;;;;5010927;28;20247;-70
2022/01/19 07:20:24;;;;;;;18.17;9.77;;;4.70;99.90;;;;;;5010737;28;20022;-69
2022/01/19 07:22:50;;;;;;;17.27;9.57;;;4.80;99.90;;;;;;5010272;28;20026;-70
2022/01/19 07:25:17;;;;;;;17.52;10.50;;;4.80;99.90;;;;;;4983572;28;20046;-69
2022/01/19 07:27:42;;;;;;;17.83;10.30;;;4.80;99.90;;;;;;4992222;28;20026;-72
2022/01/19 07:30:10;;;;;;;16.25;9.45;;;4.90;99.90;;;;;;4985330;28;20102;-71
2022/01/19 07:32:36;;;;;;;16.67;10.25;;;5.00;99.90;;;;;;4989627;28;20142;-71
2022/01/19 07:35:03;;;;;;;20.80;10.77;;;5.00;99.90;;;;;;4990077;28;20117;-70
2022/01/19 07:37:29;;;;;;;18.80;11.55;;;5.00;99.90;;;;;;4990326;28;20058;-70
2022/01/19 07:39:55;;;;;;;19.30;10.70;;;5.00;99.90;;;;;;4972938;28;20061;-69
2022/01/19 07:42:20;;;;;;;18.73;10.23;;;5.10;99.90;;;;;;4991245;28;20058;-69
2022/01/19 07:44:46;;;;;;;16.30;9.65;;;5.20;99.90;;;;;;4993781;28;20026;-69
2022/01/19 07:47:12;;;;;;;19.70;10.75;;;5.20;99.90;;;;;;4995515;28;20377;-70
2022/01/19 07:49:37;;;;;;;19.88;9.45;;;5.20;99.90;;;;;;4976286;28;20062;-70
2022/01/19 07:52:03;;;;;;;17.05;9.45;;;5.20;99.90;;;;;;4993983;28;20088;-70
2022/01/19 07:54:29;;;;;;;17.10;10.25;;;5.30;99.90;;;;;;4994101;28;20023;-70
2022/01/19 07:56:55;;;;;;;18.65;10.05;;;5.30;99.90;;;;;;4992126;28;20061;-71
2022/01/19 07:59:21;;;;;;;12.63;8.82;;;5.30;99.90;;;;;;4974217;28;20373;-69
2022/01/19 08:01:47;;;;;;;18.90;10.05;;;5.40;99.90;;;;;;4987032;28;20026;-71
2022/01/19 08:04:13;;;;;;;20.30;9.98;;;5.50;99.90;;;;;;4975986;28;20106;-71
2022/01/19 08:06:38;;;;;;;19.83;10.57;;;5.60;99.90;;;;;;4993185;28;20057;-71
2022/01/19 08:09:05;;;;;;;20.23;9.48;;;5.50;99.90;;;;;;4994204;28;20034;-71
2022/01/19 08:11:31;;;;;;;16.45;9.88;;;5.40;99.90;;;;;;4976521;28;20089;-71
2022/01/19 08:13:56;;;;;;;18.10;9.52;;;5.50;99.90;;;;;;4994853;28;20041;-70
2022/01/19 08:16:22;;;;;;;19.05;9.88;;;5.50;99.90;;;;;;4976756;28;20030;-70
2022/01/19 08:18:48;;;;;;;22.23;10.63;;;5.70;99.90;;;;;;4993550;28;20057;-71
2022/01/19 08:21:15;;;;;;;25.25;11.43;;;5.80;99.90;;;;;;4993726;28;20038;-70
2022/01/19 08:23:41;;;;;;;18.58;10.40;;;5.90;99.90;;;;;;4974920;28;20042;-71
2022/01/19 08:26:06;;;;;;;21.08;10.30;;;5.90;99.90;;;;;;4991178;28;20044;-77
2022/01/19 08:28:32;;;;;;;14.05;9.10;;;5.90;99.80;;;;;;5013485;28;20037;-76
2022/01/19 08:30:58;;;;;;;22.08;10.50;;;6.00;99.60;;;;;;4995095;28;20125;-70
2022/01/19 08:33:24;;;;;;;24.05;10.52;;;5.90;99.70;;;;;;5014988;28;20451;-79
2022/01/19 08:35:51;;;;;;;20.40;10.18;;;6.00;99.50;;;;;;5021722;28;20053;-74
2022/01/19 08:38:18;;;;;;;22.52;11.05;;;6.10;99.50;;;;;;5026553;28;20037;-74
2022/01/19 08:40:44;;;;;;;16.50;9.55;;;6.10;99.30;;;;;;4995765;28;20030;-73
2022/01/19 08:43:09;;;;;;;19.58;10.10;;;6.10;99.40;;;;;;4988536;28;20037;-72
2022/01/19 08:45:35;;;;;;;17.85;8.32;;;6.20;99.30;;;;;;5010219;28;20034;-72
2022/01/19 08:48:03;;;;;;;15.75;8.13;;;6.20;99.10;;;;;;4991734;28;20042;-73
2022/01/19 08:50:29;;;;;;;15.30;8.90;;;6.10;99.00;;;;;;4999346;28;20034;-74
2022/01/19 08:52:54;;;;;;;17.15;8.57;;;6.20;99.20;;;;;;4993229;28;20184;-73
2022/01/19 08:55:26;;;;;;;13.88;8.10;;;6.30;99.20;;;;;;5007978;28;20140;-77
2022/01/19 08:57:52;;;;;;;13.75;7.70;;;6.30;99.00;;;;;;5012395;28;20033;-75
2022/01/19 09:00:19;;;;;;;15.27;7.75;;;6.40;98.80;;;;;;4995723;28;20079;-72
2022/01/19 09:02:45;;;;;;;22.85;7.30;;;6.40;98.80;;;;;;5017354;28;20493;-75
2022/01/19 09:05:11;;;;;;;16.17;7.18;;;6.40;98.90;;;;;;5021549;28;20488;-77
2022/01/19 09:07:36;;;;;;;13.43;7.50;;;6.40;98.90;;;;;;5017811;28;20033;-72
2022/01/19 09:10:04;;;;;;;14.82;8.02;;;6.30;98.70;;;;;;5020236;28;20038;-75
2022/01/19 09:12:30;;;;;;;20.33;7.72;;;6.30;98.80;;;;;;5008743;28;20030;-74
2022/01/19 09:14:56;;;;;;;12.45;7.78;;;6.40;98.80;;;;;;5006465;28;20483;-76
2022/01/19 09:17:21;;;;;;;12.32;7.72;;;6.50;98.80;;;;;;5022617;28;20052;-73
2022/01/19 09:19:47;;;;;;;13.35;6.43;;;6.50;98.60;;;;;;5023996;28;20054;-75
2022/01/19 09:22:13;;;;;;;10.00;6.40;;;6.50;98.70;;;;;;5024921;28;20067;-76
2022/01/19 09:24:40;;;;;;;10.77;6.28;;;6.60;98.70;;;;;;5020857;28;20746;-75
2022/01/19 09:27:08;;;;;;;9.15;6.07;;;6.60;98.40;;;;;;5024133;28;20026;-76
2022/01/19 09:29:37;;;;;;;9.73;5.95;;;6.50;98.40;;;;;;5015090;28;20161;-78
2022/01/19 09:32:07;;;;;;;10.10;5.93;;;6.40;98.30;;;;;;4988418;28;20050;-70
2022/01/19 09:34:33;;;;;;;8.82;5.43;;;6.50;98.30;;;;;;5011170;28;20037;-75
2022/01/19 09:36:58;;;;;;;11.48;5.75;;;6.40;98.30;;;;;;5011252;28;20517;-75
2022/01/19 09:39:25;;;;;;;11.63;6.35;;;6.30;98.40;;;;;;5011795;28;20026;-74
2022/01/19 09:41:52;;;;;;;12.60;6.17;;;6.50;98.50;;;;;;4993886;28;20110;-74
2022/01/19 09:44:20;;;;;;;9.45;5.57;;;6.50;98.40;;;;;;5011217;28;20022;-76
2022/01/19 09:46:46;;;;;;;7.55;5.05;;;6.50;98.30;;;;;;4994272;28;20038;-75
2022/01/19 09:49:13;;;;;;;12.00;5.10;;;6.50;98.30;;;;;;5019894;28;20030;-77
2022/01/19 09:51:43;;;;;;;10.95;5.95;;;6.40;98.20;;;;;;5023434;28;20040;-75
2022/01/19 09:54:12;;;;;;;8.60;5.68;;;6.30;98.40;;;;;;5028598;28;20030;-81
2022/01/19 09:56:38;;;;;;;9.88;5.28;;;6.40;98.40;;;;;;5029169;28;20050;-81
2022/01/19 09:59:04;;;;;;;7.38;5.22;;;6.40;98.40;;;;;;5018732;28;20092;-78
2022/01/19 10:01:29;;;;;;;7.90;5.22;;;6.40;98.30;;;;;;5012607;28;20038;-77
2022/01/19 10:03:56;;;;;;;7.95;5.20;;;6.40;98.30;;;;;;5012049;28;20037;-79
2022/01/19 10:06:23;;;;;;;8.20;4.93;;;6.40;98.30;;;;;;5010980;28;20026;-71
2022/01/19 10:08:50;;;;;;;6.95;5.05;;;6.50;98.40;;;;;;4994207;28;20132;-79
2022/01/19 10:19:25;;;;;;;8.43;4.63;;;6.50;98.10;;;;;;5011902;28;20022;-76
2022/01/19 10:22:12;;;;;;;5.25;4.20;;;6.50;98.30;;;;;;5011290;28;20030;-80
2022/01/19 10:24:57;;;;;;;;;;;6.50;98.10;;;;;;4993083;28;20057;-79
2022/01/19 10:27:25;;;;;;;7.65;5.28;;;6.50;98.20;;;;;;5012691;28;19960;-79
2022/01/19 10:30:10;;;;;;;11.63;4.57;;;6.60;98.10;;;;;;5011088;28;20394;-72
2022/01/19 10:32:40;;;;;;;8.30;4.47;;;6.60;98.10;;;;;;4996817;28;20034;-79
2022/01/19 10:35:38;;;;;;;6.38;4.28;;;6.50;97.70;;;;;;5010143;28;20037;-72
2022/01/19 10:38:25;;;;;;;8.57;5.22;;;6.50;97.70;;;;;;4995153;28;20041;-72
2022/01/19 10:41:12;;;;;;;7.20;4.28;;;6.50;97.70;;;;;;4993329;28;20119;-78
2022/01/19 10:43:39;;;;;;;8.13;4.53;;;6.60;97.70;;;;;;5010955;28;20468;-78
2022/01/19 10:46:25;;;;;;;7.03;4.90;;;6.70;97.80;;;;;;4998156;28;20069;-75
2022/01/19 10:49:05;;;;;;;9.95;4.78;;;6.60;97.60;;;;;;4973834;28;20100;-76
2022/01/19 10:51:37;;;;;;;8.20;4.35;;;6.60;97.40;;;;;;4991334;28;20030;-74
2022/01/19 10:54:12;;;;;;;7.40;4.68;;;6.60;97.80;;;;;;4991107;28;20049;-75
2022/01/19 10:56:40;;;;;;;8.25;5.25;;;6.60;97.50;;;;;;4992698;28;20027;-77
2022/01/19 10:59:12;;;;;;;5.95;4.53;;;6.50;97.30;;;;;;4991144;28;20031;-70
2022/01/19 11:01:44;;;;;;;8.05;4.97;;;6.60;97.50;;;;;;5000017;28;20041;-75
2022/01/19 11:04:24;;;;;;;10.63;6.00;;;6.60;97.50;;;;;;5009480;28;20587;-75
2022/01/19 11:07:05;;;;;;;16.10;8.02;;;6.60;97.40;;;;;;5009243;28;20257;-75
2022/01/19 11:09:33;;;;;;;14.95;6.30;;;6.60;97.40;;;;;;4993440;28;20022;-75
2022/01/19 11:12:06;;;;;;;8.80;6.25;;;6.70;97.60;;;;;;4991442;28;20042;-77
2022/01/19 11:14:34;;;;;;;15.82;5.43;;;6.70;97.50;;;;;;4993634;28;20419;-77
2022/01/19 11:18:05;;;;;;;16.52;5.53;;;6.70;97.40;;;;;;5011433;28;20399;-74
2022/01/19 11:20:40;;;;;;;9.02;5.13;;;6.70;97.50;;;;;;4994523;28;20548;-72
2022/01/19 11:23:31;;;;;;;7.60;5.60;;;6.80;97.50;;;;;;5013787;28;20049;-75
2022/01/19 11:25:58;;;;;;;10.02;4.90;;;6.70;97.20;;;;;;5013828;28;20053;-76
2022/01/19 11:28:33;;;;;;;9.13;5.85;;;6.60;97.50;;;;;;5013109;28;20045;-73
2022/01/19 11:31:08;;;;;;;9.73;6.45;;;6.50;97.40;;;;;;5012317;28;20037;-76
2022/01/19 11:33:43;;;;;;;10.90;6.70;;;6.60;97.60;;;;;;5012888;28;20076;-74
2022/01/19 11:36:18;;;;;;;8.32;6.00;;;6.50;97.40;;;;;;4996783;28;20360;-76
2022/01/19 11:38:46;;;;;;;15.27;7.10;;;6.60;97.40;;;;;;5013626;28;20030;-73
2022/01/19 11:41:18;;;;;;;10.32;7.07;;;6.70;97.50;;;;;;4996152;28;20069;-79
2022/01/19 11:44:02;;;;;;;8.88;6.25;;;6.70;97.20;;;;;;5013353;28;20108;-73
2022/01/19 11:46:39;;;;;;;16.95;6.88;;;6.60;97.20;;;;;;5013078;28;20053;-77
2022/01/19 11:49:09;;;;;;;13.18;6.72;;;6.50;97.40;;;;;;5013824;28;20097;-73
2022/01/19 11:51:46;;;;;;;8.43;6.10;;;6.70;97.60;;;;;;5013291;28;20407;-77
2022/01/19 11:54:13;;;;;;;10.88;6.82;;;6.60;97.10;;;;;;5012800;28;20387;-76
2022/01/19 11:56:58;;;;;;;9.55;6.60;;;6.50;97.10;;;;;;4996296;28;20042;-81
2022/01/19 11:59:30;;;;;;;11.05;6.00;;;6.60;97.00;;;;;;4996609;28;20026;-78
2022/01/19 12:02:36;;;;;;;8.60;6.10;;;6.70;97.00;;;;;;4996153;28;20519;-78
2022/01/19 12:05:07;;;;;;;14.98;6.32;;;6.70;96.90;;;;;;4997562;28;20042;-81
2022/01/19 12:07:41;;;;;;;9.13;6.90;;;6.60;96.70;;;;;;4996581;28;20041;-77
2022/01/19 12:10:16;;;;;;;12.70;7.68;;;6.70;96.70;;;;;;5014066;28;20034;-77
2022/01/19 12:13:07;;;;;;;10.57;7.25;;;6.70;96.60;;;;;;5015356;28;20110;-78
2022/01/19 12:15:55;;;;;;;12.60;7.00;;;6.70;96.60;;;;;;5015640;28;20091;-82
2022/01/19 12:18:41;;;;;;;9.02;6.15;;;6.80;96.80;;;;;;5015524;28;20371;-76
2022/01/19 12:21:07;;;;;;;9.40;6.97;;;6.70;96.40;;;;;;4962107;28;20042;-79
2022/01/19 12:23:35;;;;;;;10.27;6.88;;;6.70;96.50;;;;;;4997513;28;20586;-81
2022/01/19 12:26:09;;;;;;;10.48;6.18;;;6.60;96.40;;;;;;4983244;28;20506;-81
2022/01/19 12:28:54;;;;;;;16.30;7.07;;;6.70;96.40;;;;;;4992026;28;20193;-72
2022/01/19 12:31:25;;;;;;;11.90;7.78;;;6.60;96.40;;;;;;4993208;28;20030;-72
2022/01/19 12:34:03;;;;;;;16.15;7.40;;;6.60;96.50;;;;;;4975632;28;20133;-72
2022/01/19 12:36:40;;;;;;;10.25;6.88;;;6.60;96.50;;;;;;4994275;28;20068;-78
2022/01/19 12:39:24;;;;;;;12.05;7.47;;;6.70;96.50;;;;;;4995258;28;20047;-78
2022/01/19 12:42:01;;;;;;;10.40;7.35;;;6.60;96.50;;;;;;4975549;28;20035;-78
2022/01/19 12:44:46;;;;;;;13.65;8.75;;;6.70;96.60;;;;;;4958193;28;20042;-80
2022/01/19 12:47:29;;;;;;;11.93;8.10;;;6.70;96.40;;;;;;4993450;28;20133;-82
2022/01/19 12:49:56;;;;;;;13.90;8.60;;;6.60;96.50;;;;;;4978197;28;20037;-81
2022/01/19 12:52:25;;;;;;;14.35;8.55;;;6.60;96.70;;;;;;4978473;28;20437;-78
2022/01/19 12:54:53;;;;;;;14.18;9.27;;;6.70;96.70;;;;;;4975843;28;20417;-77
2022/01/19 12:57:18;;;;;;;;;;;6.60;96.60;;;;;;4993991;28;20022;-79
2022/01/19 12:59:48;;;;;;;19.90;9.27;;;6.60;96.80;;;;;;4976157;28;19954;-77
2022/01/19 13:02:16;;;;;;;14.25;9.35;;;6.60;96.80;;;;;;4993409;28;20034;-75
2022/01/19 13:04:45;;;;;;;;;;;6.50;96.70;;;;;;4993404;28;20077;-78
2022/01/19 13:07:20;;;;;;;19.77;10.05;;;6.50;96.80;;;;;;4988169;28;20352;-80
2022/01/19 13:10:24;;;;;;;19.65;11.70;;;6.60;96.90;;;;;;4994663;28;20038;-78
2022/01/19 13:12:57;;;;;;;17.17;10.88;;;6.60;96.90;;;;;;4995427;28;20025;-77
2022/01/19 13:15:43;;;;;;;16.73;10.70;;;6.60;96.90;;;;;;4977369;28;20054;-76
2022/01/19 13:18:10;;;;;;;17.58;11.13;;;6.70;96.80;;;;;;4973987;28;20043;-80
2022/01/19 13:20:36;;;;;;;16.08;10.55;;;6.70;96.80;;;;;;4960033;28;20058;-77
2022/01/19 13:23:04;;;;;;;15.45;10.57;;;6.80;96.80;;;;;;4974443;28;20054;-71
2022/01/19 13:25:32;;;;;;;17.15;10.25;;;6.70;96.60;;;;;;5004276;28;20046;-81
2022/01/19 13:28:01;;;;;;;15.23;10.18;;;6.70;96.70;;;;;;5015341;28;20086;-80
2022/01/19 13:30:34;;;;;;;13.10;9.25;;;6.60;96.60;;;;;;5017243;28;20088;-81
2022/01/19 13:33:10;;;;;;;13.63;9.68;;;6.60;96.70;;;;;;5014668;28;20076;-70
2022/01/19 13:35:35;;;;;;;16.38;9.02;;;6.60;96.90;;;;;;4993036;28;20037;-73
2022/01/19 13:38:09;;;;;;;15.75;10.15;;;6.60;96.70;;;;;;5018679;28;20025;-77
2022/01/19 13:40:35;;;;;;;15.68;9.68;;;6.70;96.80;;;;;;5022997;28;20475;-77
2022/01/19 13:43:11;;;;;;;13.48;9.30;;;6.60;96.60;;;;;;5021625;28;20103;-78
2022/01/19 13:50:53;;;;;;;18.27;10.48;;;6.80;97.20;;;;;;5012236;28;20156;-70
2022/01/19 13:53:33;;;;;;;16.08;10.40;;;6.80;96.80;;;;;;5011222;28;20467;-76
2022/01/19 13:56:01;;;;;;;17.95;10.65;;;6.70;96.70;;;;;;5010517;28;20029;-76
2022/01/19 13:58:37;;;;;;;26.75;10.70;;;6.70;96.70;;;;;;5010834;28;20039;-76
2022/01/19 14:01:12;;;;;;;17.58;9.82;;;6.80;96.70;;;;;;5010530;28;20030;-76
2022/01/19 14:03:58;;;;;;;14.65;9.50;;;6.80;96.80;;;;;;5010799;28;20085;-75
2022/01/19 14:06:32;;;;;;;16.10;9.82;;;6.80;96.70;;;;;;4994279;28;20022;-75
2022/01/19 14:09:09;;;;;;;16.08;10.25;;;6.70;96.70;;;;;;5011864;28;20506;-75
2022/01/19 14:11:35;;;;;;;15.55;9.70;;;6.80;96.80;;;;;;5011421;28;20204;-76
2022/01/19 14:14:03;;;;;;;18.27;10.93;;;6.70;96.80;;;;;;4993086;28;20063;-76
2022/01/19 14:16:35;;;;;;;18.17;10.98;;;6.70;97.00;;;;;;5011043;28;20236;-75